AZ25 weather

Tri-Rotor Ag Services Airport
Somerton, Arizona, United States

Public forecast

Using degrees Fahrenheit for public forecast. Weather courtesy of forecast.io.

Closest aviation weather report (METAR) to Tri-Rotor Ag Services Airport

Closest report is Yuma MCAS/Yuma International Airport, 7.0 nm (13.0 km) NNE. Retrieved 2020/02/23 13:57 UTC (17 minutes ago):

KNYL 231357Z AUTO 28007KT 10SM CLR 13/06 A3013 RMK AO2 SLP201 T01280061

Closest aviation forecast (TAF) to Tri-Rotor Ag Services Airport

Forecast is more than 12 hours old.

Closest forecast is Yuma MCAS/Yuma International Airport, 7.0 nm (13.0 km) NNE. Retrieved 2014/04/27 15:15 UTC (6 years ago):

TAF TAF COR KNYL 271500Z 2715/2815 VRB06KT 9999 FEW250 QNH2989INS BECMG 2716/2718 26007KT QNH2978INS BECMG 2806/2808 VRB05KT QNH2981INS AUTOMATED SENSOR METWATCH 2715 TIL 2815 TX22/2723Z TN10/2813Z COR 1545